createdAt,value
2016-01-21T16:37:38.937Z,-0.17
2016-01-21T16:38:07.984Z,-0.25
2016-01-21T16:39:07.705Z,-0.2
2016-01-21T16:41:44.417Z,-0.11
2016-01-21T16:42:13.172Z,-0.13
2016-01-21T16:43:13.174Z,-0.13
2016-01-21T16:44:13.131Z,-0.07
2016-01-21T16:45:13.133Z,-0.1
2016-01-21T16:46:12.979Z,-0.08
2016-01-21T16:47:12.966Z,-0.08
2016-01-21T16:48:12.969Z,-0.11
2016-01-21T16:49:12.957Z,-0.1
2016-01-21T16:50:12.990Z,-0.13
2016-01-21T16:51:12.993Z,-0.2
2016-01-21T16:52:12.979Z,-0.25
2016-01-21T16:53:12.967Z,-0.17
2016-01-21T16:54:13.016Z,-0.25
2016-01-21T16:55:12.940Z,-0.29
2016-01-21T16:56:12.928Z,-0.21
2016-01-21T16:57:12.915Z,-0.34
2016-01-21T16:58:12.918Z,-0.35
2016-01-21T16:59:12.904Z,-0.31
2016-01-21T17:00:12.907Z,-0.32
2016-01-21T17:01:12.942Z,-0.36
2016-01-21T17:02:12.913Z,-0.36
2016-01-21T17:03:12.869Z,-0.28
2016-01-21T17:04:12.872Z,-0.34
2016-01-21T17:05:12.905Z,-0.25
2016-01-21T17:06:12.862Z,-0.21
2016-01-21T17:07:12.880Z,-0.26
2016-01-21T17:08:12.867Z,-0.25
2016-01-21T17:09:12.839Z,-0.25
2016-01-21T17:10:13.309Z,-0.26
2016-01-21T17:11:12.827Z,-0.26
2016-01-21T17:12:12.830Z,-0.26
2016-01-21T17:13:12.834Z,-0.28
2016-01-21T17:14:12.835Z,-0.26
2016-01-21T17:15:12.839Z,-0.23
2016-01-21T17:16:12.810Z,-0.21
2016-01-21T17:17:12.813Z,-0.28
2016-01-21T17:18:12.800Z,-0.2
2016-01-21T17:19:12.803Z,-0.18
2016-01-21T17:20:12.790Z,-0.26
2016-01-21T17:21:12.793Z,-0.17
2016-01-21T17:22:12.780Z,-0.25
2016-01-21T17:23:12.782Z,-0.21
2016-01-21T17:24:12.786Z,-0.28
2016-01-21T17:25:12.758Z,-0.29
2016-01-21T17:26:12.760Z,-0.26
2016-01-21T17:27:12.762Z,-0.28
2016-01-21T17:28:12.812Z,-0.31
2016-01-21T17:29:12.815Z,-0.28
2016-01-21T17:30:12.739Z,-0.26
2016-01-21T17:31:12.726Z,-0.29
2016-01-21T17:32:12.901Z,-0.21
2016-01-21T17:33:12.716Z,-0.23
2016-01-21T17:34:12.704Z,-0.2
2016-01-21T17:35:12.707Z,-0.28
2016-01-21T17:36:12.818Z,-0.32
2016-01-21T17:37:12.757Z,-0.35
2016-01-21T17:38:12.714Z,-0.41
2016-01-21T17:39:12.717Z,-0.36
2016-01-21T17:40:12.688Z,-0.43
2016-01-21T17:41:12.707Z,-0.38
2016-01-21T17:42:12.662Z,-0.44
2016-01-21T17:43:12.665Z,-0.53
2016-01-21T17:44:12.668Z,-0.57
2016-01-21T17:45:12.686Z,-0.57
2016-01-21T17:46:12.736Z,-0.72
2016-01-21T17:47:12.659Z,-0.7
2016-01-21T17:48:12.654Z,-0.72
2016-01-21T17:49:12.671Z,-0.72
2016-01-21T17:50:12.627Z,-0.78
2016-01-21T17:51:12.630Z,-0.85
2016-01-21T17:52:12.618Z,-0.86
2016-01-21T17:53:12.589Z,-0.82
2016-01-21T17:54:12.592Z,-0.94
2016-01-21T17:55:12.595Z,-1.02
2016-01-21T17:56:12.581Z,-1.02
2016-01-21T17:57:12.584Z,-1.05
2016-01-21T17:58:12.571Z,-0.99
2016-01-21T17:59:12.465Z,-1.11
2016-01-21T18:00:12.576Z,-1.04
2016-01-21T18:01:12.564Z,-1.01
2016-01-21T18:02:12.551Z,-1.08
2016-01-21T18:03:12.569Z,-1.12
2016-01-21T18:04:12.541Z,-1.11
2016-01-21T18:05:12.528Z,-1.07
2016-01-21T18:06:12.514Z,-1.11
2016-01-21T18:07:12.548Z,-1.17
2016-01-21T18:08:12.505Z,-1.19
2016-01-21T18:09:12.570Z,-1.17
2016-01-21T18:10:12.572Z,-1.23
2016-01-21T18:11:12.497Z,-1.23
2016-01-21T18:12:12.484Z,-1.33
2016-01-21T18:13:12.549Z,-1.25
2016-01-21T18:14:12.474Z,-1.32
2016-01-21T18:15:12.460Z,-1.32
2016-01-21T18:16:12.479Z,-1.29
2016-01-21T18:17:12.450Z,-1.35
2016-01-21T18:18:12.453Z,-1.27
2016-01-21T18:19:12.455Z,-1.26
2016-01-21T18:20:12.458Z,-1.27
2016-01-21T18:21:12.415Z,-1.3
2016-01-21T18:22:12.418Z,-1.2
2016-01-21T18:23:12.466Z,-1.27
2016-01-21T18:24:12.657Z,-1.26
2016-01-21T18:25:12.425Z,-1.12
2016-01-21T18:26:12.412Z,-1.14
2016-01-21T18:27:12.399Z,-1.12
2016-01-21T18:28:12.402Z,-1.05
2016-01-21T18:29:12.374Z,-1.11
2016-01-21T18:30:12.407Z,-1.09
2016-01-21T18:31:12.379Z,-1.04
2016-01-21T18:32:12.381Z,-1.12
2016-01-21T18:33:12.368Z,-1.14
2016-01-21T18:34:12.387Z,-1.08
2016-01-21T18:35:12.343Z,-1.07
2016-01-21T18:36:12.330Z,-1.09
2016-01-21T18:37:12.333Z,-1.11
2016-01-21T18:38:12.317Z,-1.12
2016-01-21T18:39:12.339Z,-1.29
2016-01-21T18:40:12.315Z,-1.25
2016-01-21T18:41:12.289Z,-1.26
2016-01-21T18:42:12.265Z,-1.3
2016-01-21T18:43:12.241Z,-1.26
2016-01-21T18:44:12.224Z,-1.27
2016-01-21T18:45:12.223Z,-1.26
2016-01-21T18:46:12.253Z,-1.29
2016-01-21T18:47:12.173Z,-1.33
2016-01-21T18:48:12.171Z,-1.33
2016-01-21T18:49:12.189Z,-1.32
2016-01-21T18:50:12.221Z,-1.37
2016-01-21T18:51:12.207Z,-1.43
2016-01-21T18:52:12.145Z,-1.41
2016-01-21T18:53:12.131Z,-1.33
2016-01-21T18:54:12.149Z,-1.33
2016-01-21T18:55:12.136Z,-1.29
2016-01-21T18:56:12.107Z,-1.29
2016-01-21T18:57:12.156Z,-1.32
2016-01-21T18:58:12.142Z,-1.32
2016-01-21T18:59:12.095Z,-1.32
2016-01-21T19:00:12.098Z,-1.33
2016-01-21T19:01:12.085Z,-1.37
2016-01-21T19:02:12.135Z,-1.33
2016-01-21T19:03:12.061Z,-1.27
2016-01-21T19:04:12.048Z,-1.33
2016-01-21T19:05:12.066Z,-1.35
2016-01-21T19:06:12.054Z,-1.33
2016-01-21T19:07:12.056Z,-1.37
2016-01-21T19:08:12.043Z,-1.4
2016-01-21T19:09:12.031Z,-1.38
2016-01-21T19:10:12.033Z,-1.37
2016-01-21T19:11:12.020Z,-1.33
2016-01-21T19:12:12.008Z,-1.37
2016-01-21T19:13:12.135Z,-1.4
2016-01-21T19:14:12.013Z,-1.38
2016-01-21T19:46:43.634Z,-2.42
2016-01-21T19:47:12.305Z,-2.32
2016-01-21T19:48:12.308Z,-2.38
2016-01-21T19:49:12.295Z,-2.42
2016-01-21T19:50:12.313Z,-2.45
2016-01-21T19:51:12.301Z,-2.41
2016-01-21T19:52:12.288Z,-2.47
2016-01-21T19:53:12.290Z,-2.48
2016-01-21T19:54:12.278Z,-2.5
2016-01-21T19:55:12.264Z,-2.48
2016-01-21T19:56:12.267Z,-2.5
2016-01-21T19:57:12.098Z,-2.55
2016-01-21T19:58:12.273Z,-2.58
2016-01-21T19:59:12.212Z,-2.53
2016-01-21T20:00:12.215Z,-2.5
2016-01-21T20:01:12.234Z,-2.58
2016-01-21T20:02:12.206Z,-2.59
2016-01-21T20:03:12.208Z,-2.53
2016-01-21T20:04:12.210Z,-2.55
2016-01-21T20:05:12.183Z,-2.53
2016-01-21T20:06:12.186Z,-2.48
2016-01-21T20:07:12.156Z,-2.55
2016-01-21T20:08:12.253Z,-2.48
2016-01-21T20:09:12.161Z,-2.53
2016-01-21T20:10:12.149Z,-2.56
2016-01-21T20:11:12.135Z,-2.59
2016-01-21T20:12:12.138Z,-2.63
2016-01-21T20:13:12.141Z,-2.59
2016-01-21T20:14:12.316Z,-2.58
2016-01-21T20:15:12.131Z,-2.6
2016-01-21T20:16:12.103Z,-2.71
2016-01-21T20:17:12.090Z,-2.66
2016-01-21T20:18:12.093Z,-2.76
2016-01-21T20:19:12.079Z,-2.7
2016-01-21T20:20:12.066Z,-2.7
2016-01-21T20:21:12.069Z,-2.66
2016-01-21T20:22:12.071Z,-2.7
2016-01-21T20:23:12.060Z,-2.83
2016-01-21T20:24:12.030Z,-2.76
2016-01-21T20:25:12.033Z,-2.77
2016-01-21T20:26:12.036Z,-2.8
2016-01-21T20:27:12.038Z,-2.83
2016-01-21T20:28:12.026Z,-2.8
2016-01-21T20:29:12.168Z,-2.86
2016-01-21T20:30:12.031Z,-2.86
2016-01-21T20:31:11.987Z,-2.81
2016-01-21T20:32:11.990Z,-2.81
2016-01-21T20:33:11.976Z,-2.8
2016-01-21T20:34:11.964Z,-2.86
2016-01-21T20:35:11.967Z,-2.83
2016-01-21T20:36:12.016Z,-2.94
2016-01-21T20:37:12.347Z,-2.91
2016-01-21T20:38:11.943Z,-2.94
2016-01-21T20:39:11.945Z,-2.94
2016-01-21T20:40:11.933Z,-2.86
2016-01-21T20:41:11.920Z,-2.92
2016-01-21T20:42:11.922Z,-2.99
2016-01-21T20:43:11.894Z,-3.01
2016-01-21T20:44:11.881Z,-2.97
2016-01-21T20:45:11.900Z,-2.99
2016-01-21T20:46:11.886Z,-3.01
2016-01-21T20:47:11.874Z,-2.98
2016-01-21T20:48:11.860Z,-2.98
2016-01-21T20:49:12.222Z,-2.98
2016-01-21T20:50:11.849Z,-3.01
2016-01-21T20:51:11.838Z,-2.98
2016-01-21T20:52:11.856Z,-3.1
2016-01-21T20:53:11.827Z,-3.09
2016-01-21T20:54:11.815Z,-3.04
2016-01-21T20:55:11.817Z,-3.07
2016-01-21T20:56:11.804Z,-3.16
2016-01-21T20:57:11.791Z,-3.04
2016-01-21T20:58:11.794Z,-3.13
2016-01-21T20:59:11.796Z,-3.15
2016-01-21T21:00:11.768Z,-3.13
2016-01-21T21:01:11.787Z,-3.13
2016-01-21T21:02:11.774Z,-3.17
2016-01-21T21:03:11.776Z,-3.19
2016-01-21T21:04:11.754Z,-3.2
2016-01-21T21:05:11.724Z,-3.13
2016-01-21T21:06:11.743Z,-3.1
2016-01-21T21:07:11.699Z,-3.16
2016-01-21T21:08:11.905Z,-3.13
2016-01-21T21:09:11.705Z,-3.13
2016-01-21T21:10:11.692Z,-3.04
2016-01-21T21:11:11.686Z,-3.12
2016-01-21T21:12:11.703Z,-3.15
2016-01-21T21:13:11.501Z,-3.15
2016-01-21T21:14:11.663Z,-3.16
2016-01-21T21:15:11.680Z,-3.22
2016-01-21T21:16:11.671Z,-3.19
2016-01-21T21:17:11.625Z,-3.19
2016-01-21T21:18:11.628Z,-3.13
2016-01-21T21:19:11.630Z,-3.2
2016-01-21T21:20:11.793Z,-3.16
2016-01-21T21:21:11.843Z,-3.16
2016-01-21T21:22:11.596Z,-3.16
2016-01-21T21:23:11.599Z,-3.07
2016-01-21T21:24:11.569Z,-3.09
2016-01-21T21:25:11.572Z,-3.15
2016-01-21T21:26:11.559Z,-3.25
2016-01-21T21:27:11.562Z,-3.25
2016-01-21T21:28:11.549Z,-3.22
2016-01-21T21:29:11.537Z,-3.34
2016-01-21T21:30:11.523Z,-3.37
2016-01-21T21:31:11.526Z,-3.3
2016-01-21T21:32:11.778Z,-3.34
2016-01-21T21:33:11.501Z,-3.35
2016-01-21T21:34:11.504Z,-3.35
2016-01-21T21:35:11.493Z,-3.35
2016-01-21T21:36:11.479Z,-3.2
2016-01-21T21:37:11.467Z,-3.34
2016-01-21T21:38:11.470Z,-3.3
2016-01-21T21:39:11.457Z,-3.23
2016-01-21T21:40:11.443Z,-3.34
2016-01-21T21:41:11.431Z,-3.34
2016-01-21T21:42:11.434Z,-3.31
2016-01-21T21:43:11.451Z,-3.33
2016-01-21T21:44:11.408Z,-3.34
2016-01-21T21:45:11.405Z,-3.23
2016-01-21T21:46:11.439Z,-3.35
2016-01-21T21:47:11.395Z,-3.23
2016-01-21T21:48:11.381Z,-3.17
2016-01-21T21:49:11.384Z,-3.15
2016-01-21T21:50:11.371Z,-3.19
2016-01-21T21:51:11.361Z,-3.06
2016-01-21T21:52:11.350Z,-3.13
2016-01-21T21:53:11.352Z,-3.16
2016-01-21T21:54:11.339Z,-3.09
2016-01-21T21:55:11.326Z,-3.15
2016-01-21T21:56:11.329Z,-3.17
2016-01-21T21:57:11.331Z,-3.19
2016-01-21T21:58:11.302Z,-3.16
2016-01-21T21:59:11.337Z,-3.2
2016-01-21T22:00:11.309Z,-3.2
2016-01-21T22:01:11.342Z,-3.22
2016-01-21T22:02:11.266Z,-3.23
2016-01-21T22:03:11.270Z,-3.19
2016-01-21T22:04:11.272Z,-3.23
2016-01-21T22:05:11.244Z,-3.28
2016-01-21T22:06:11.235Z,-3.31
2016-01-21T22:07:11.237Z,-3.23
2016-01-21T22:08:11.240Z,-3.22
2016-01-21T22:09:11.227Z,-3.17
2016-01-21T22:10:11.215Z,-3.19
2016-01-21T22:11:11.201Z,-3.19
2016-01-21T22:12:11.203Z,-3.16
2016-01-21T22:13:11.191Z,-3.22
2016-01-21T22:14:11.241Z,-3.1
2016-01-21T22:15:11.165Z,-3.12
2016-01-21T22:16:11.173Z,-3.19
2016-01-21T22:17:11.145Z,-3.09
2016-01-21T22:18:11.147Z,-3.13
2016-01-21T22:19:11.150Z,-3.01
2016-01-21T22:20:11.137Z,-3.09
2016-01-21T22:21:10.972Z,-3.16
2016-01-21T22:22:11.099Z,-3.2
2016-01-21T22:23:11.100Z,-3.15
2016-01-21T22:24:11.116Z,-3.17
2016-01-21T22:25:10.942Z,-3.17
2016-01-21T22:26:11.083Z,-3.16
2016-01-21T22:27:11.060Z,-3.09
2016-01-21T22:28:11.063Z,-3.17
2016-01-21T22:29:11.061Z,-3.09
2016-01-21T22:30:11.053Z,-3.13
2016-01-21T22:31:11.041Z,-3.09
2016-01-21T22:32:11.040Z,-3.17
2016-01-21T22:33:11.033Z,-3.1
2016-01-21T22:34:11.007Z,-3.16
2016-01-21T22:35:11.006Z,-3.2
2016-01-21T22:36:10.830Z,-3.16
2016-01-21T22:37:10.991Z,-3.07
2016-01-21T22:38:10.976Z,-3.07
2016-01-21T22:39:10.972Z,-3.07
2016-01-21T22:40:10.992Z,-3.16
2016-01-21T22:41:10.947Z,-3.13
2016-01-21T22:42:10.973Z,-3.07
2016-01-21T22:43:10.931Z,-3.1
2016-01-21T22:44:11.378Z,-3.1
2016-01-21T22:45:11.015Z,-3.07
2016-01-21T22:46:10.922Z,-3.09
2016-01-21T22:47:10.916Z,-3.16
2016-01-21T22:48:10.885Z,-3.15
2016-01-21T22:49:10.898Z,-3.16
2016-01-21T22:50:10.895Z,-3.12
2016-01-21T22:51:10.872Z,-3.09
2016-01-21T22:52:10.867Z,-3.16
2016-01-21T22:53:10.862Z,-3.09
2016-01-21T22:54:10.843Z,-3.1
2016-01-21T22:55:10.847Z,-2.97
2016-01-21T22:56:10.827Z,-2.95
2016-01-21T22:57:10.847Z,-2.98
2016-01-21T22:58:10.864Z,-2.95
2016-01-21T22:59:10.821Z,-2.98
2016-01-21T23:00:10.798Z,-2.97
2016-01-21T23:01:10.775Z,-2.89
2016-01-21T23:02:10.783Z,-2.89
2016-01-21T23:03:10.799Z,-2.86
2016-01-21T23:04:10.760Z,-2.84
2016-01-21T23:05:10.756Z,-2.78
2016-01-21T23:06:10.757Z,-2.77
2016-01-21T23:07:11.054Z,-2.8
2016-01-21T23:08:10.777Z,-2.74
2016-01-21T23:09:10.729Z,-2.83
2016-01-21T23:10:10.729Z,-2.71
2016-01-21T23:11:10.716Z,-2.84
2016-01-21T23:12:10.690Z,-2.86
2016-01-21T23:13:10.695Z,-2.78
2016-01-21T23:14:10.684Z,-2.84
2016-01-21T23:15:10.687Z,-2.78
2016-01-21T23:16:10.662Z,-2.8
2016-01-21T23:17:10.658Z,-2.88
2016-01-21T23:18:10.653Z,-2.94
2016-01-21T23:19:10.641Z,-2.94
2016-01-21T23:20:10.648Z,-2.97
2016-01-21T23:21:10.613Z,-2.97
2016-01-21T23:22:10.614Z,-2.92
2016-01-21T23:23:10.614Z,-2.89
2016-01-21T23:24:10.601Z,-2.94
2016-01-21T23:25:10.600Z,-2.94
2016-01-21T23:26:10.584Z,-3.04
2016-01-21T23:27:10.584Z,-2.95
2016-01-21T23:28:10.566Z,-2.95
2016-01-21T23:29:10.564Z,-2.99
2016-01-21T23:30:10.557Z,-2.95
2016-01-21T23:31:10.538Z,-2.98
2016-01-21T23:32:10.550Z,-2.99
2016-01-21T23:33:10.949Z,-2.89
2016-01-21T23:34:10.526Z,-2.98
2016-01-21T23:35:10.510Z,-2.97
2016-01-21T23:36:10.494Z,-3.1
2016-01-21T23:37:10.486Z,-3.1
2016-01-21T23:38:10.480Z,-3.01
2016-01-21T23:39:10.451Z,-3.07
2016-01-21T23:40:10.452Z,-3.09
2016-01-21T23:41:10.448Z,-3.12
2016-01-21T23:42:10.457Z,-3.15
2016-01-21T23:43:10.432Z,-3.16
2016-01-21T23:44:10.423Z,-3.13
2016-01-21T23:45:10.420Z,-3.16
2016-01-21T23:46:10.413Z,-3.13
2016-01-21T23:47:10.467Z,-3.16
2016-01-21T23:48:10.397Z,-3.17
2016-01-21T23:49:10.395Z,-3.17
2016-01-21T23:50:10.377Z,-3.15
2016-01-21T23:51:10.828Z,-3.09
2016-01-21T23:52:10.367Z,-3.16
2016-01-21T23:53:10.369Z,-3.16
2016-01-21T23:54:10.337Z,-3.23
2016-01-21T23:55:10.336Z,-3.2
2016-01-21T23:56:10.331Z,-3.16
2016-01-21T23:57:10.320Z,-3.13
2016-01-21T23:58:10.306Z,-3.16
2016-01-21T23:59:10.388Z,-3.23
